Time,TemperatureF,DewpointF,PressureIn,WindDirection,WindDirectionDegrees,WindSpeedMPH,WindSpeedGustMPH,Humidity,HourlyPrecipIn,Conditions,Clouds,dailyrainin,SolarRadiationWatts/m^2,SoftwareType,DateUTC
2013-06-25 00:21:00,49.0,45.0,-100.00,NNE,27,1.0,10.0,87,0.01,,,-99.99,0.000000,,2013-06-25 06:21:00,
2013-06-25 00:33:00,49.0,45.0,-100.00,NNE,27,1.0,10.0,87,0.01,,,-99.99,0.000000,,2013-06-25 06:33:00,
2013-06-25 00:43:00,49.0,45.0,-100.00,NNE,27,1.0,10.0,87,0.01,,,-99.99,0.000000,,2013-06-25 06:43:00,
2013-06-25 00:52:00,49.0,44.0,-100.00,East,98,1.0,8.0,84,0.00,,,-99.99,0.000000,,2013-06-25 06:52:00,
2013-06-25 01:22:00,49.0,44.0,-100.00,East,98,1.0,8.0,84,0.00,,,-99.99,0.000000,,2013-06-25 07:22:00,
2013-06-25 01:33:00,49.0,44.0,-100.00,East,98,1.0,8.0,84,0.00,,,-99.99,0.000000,,2013-06-25 07:33:00,
2013-06-25 01:43:00,49.0,44.0,-100.00,East,98,1.0,8.0,84,0.00,,,-99.99,0.000000,,2013-06-25 07:43:00,
2013-06-25 01:52:00,47.0,46.0,-100.00,East,83,2.0,5.0,97,0.02,,,-99.99,0.000000,,2013-06-25 07:52:00,
2013-06-25 02:43:00,47.0,46.0,-100.00,East,83,2.0,5.0,97,0.02,,,-99.99,0.000000,,2013-06-25 08:43:00,
2013-06-25 02:52:00,47.0,46.0,-100.00,West,279,1.0,3.0,98,0.01,,,-99.99,0.000000,,2013-06-25 08:52:00,
2013-06-25 03:12:00,47.0,46.0,-100.00,West,279,1.0,3.0,98,0.01,,,-99.99,0.000000,,2013-06-25 09:12:00,
2013-06-25 03:21:00,47.0,46.0,-100.00,West,279,1.0,3.0,98,0.01,,,-99.99,0.000000,,2013-06-25 09:21:00,
2013-06-25 03:33:00,47.0,46.0,-100.00,West,279,1.0,3.0,98,0.01,,,-99.99,0.000000,,2013-06-25 09:33:00,
2013-06-25 03:43:00,47.0,46.0,-100.00,West,279,1.0,3.0,98,0.01,,,-99.99,0.000000,,2013-06-25 09:43:00,
2013-06-25 03:52:00,46.0,45.0,-100.00,NW,311,1.0,3.0,97,0.00,,,-99.99,0.000000,,2013-06-25 09:52:00,
2013-06-25 04:21:00,46.0,45.0,-100.00,NW,311,1.0,3.0,97,0.00,,,-99.99,0.000000,,2013-06-25 10:21:00,
2013-06-25 04:33:00,46.0,45.0,-100.00,NW,311,1.0,3.0,97,0.00,,,-99.99,0.000000,,2013-06-25 10:33:00,
2013-06-25 04:42:00,46.0,45.0,-100.00,NW,311,1.0,3.0,97,0.00,,,-99.99,0.000000,,2013-06-25 10:42:00,
2013-06-25 04:52:00,46.0,45.0,-100.00,SSW,200,0.0,3.0,98,0.00,,,-99.99,0.000000,,2013-06-25 10:52:00,
2013-06-25 05:22:00,46.0,45.0,-100.00,SSW,200,0.0,3.0,98,0.00,,,-99.99,0.000000,,2013-06-25 11:22:00,
2013-06-25 05:34:00,46.0,45.0,-100.00,SSW,200,0.0,3.0,98,0.00,,,-99.99,0.000000,,2013-06-25 11:34:00,
2013-06-25 05:43:00,46.0,45.0,-100.00,SSW,200,0.0,3.0,98,0.00,,,-99.99,0.000000,,2013-06-25 11:43:00,
2013-06-25 05:52:00,46.0,45.0,-100.00,West,259,0.0,3.0,97,0.00,,,-99.99,0.000000,,2013-06-25 11:52:00,
2013-06-25 06:22:00,46.0,45.0,-100.00,West,259,0.0,3.0,97,0.00,,,-99.99,0.000000,,2013-06-25 12:22:00,
2013-06-25 06:33:00,46.0,45.0,-100.00,West,259,0.0,3.0,97,0.00,,,-99.99,0.000000,,2013-06-25 12:33:00,
2013-06-25 06:43:00,46.0,45.0,-100.00,West,259,0.0,3.0,97,0.00,,,-99.99,0.000000,,2013-06-25 12:43:00,
2013-06-25 06:52:00,47.0,46.0,-100.00,North,350,1.0,4.0,96,0.00,,,-99.99,22.000000,,2013-06-25 12:52:00,
2013-06-25 07:22:00,47.0,46.0,-100.00,North,350,1.0,4.0,96,0.00,,,-99.99,22.000000,,2013-06-25 13:22:00,
2013-06-25 07:34:00,47.0,46.0,-100.00,North,350,1.0,4.0,96,0.00,,,-99.99,22.000000,,2013-06-25 13:34:00,
2013-06-25 07:42:00,47.0,46.0,-100.00,North,350,1.0,4.0,96,0.00,,,-99.99,22.000000,,2013-06-25 13:42:00,
2013-06-25 07:52:00,49.0,47.0,-100.00,WSW,254,0.0,5.0,92,0.00,,,-99.99,89.000000,,2013-06-25 13:52:00,
2013-06-25 08:22:00,49.0,47.0,-100.00,WSW,254,0.0,5.0,92,0.00,,,-99.99,89.000000,,2013-06-25 14:22:00,
2013-06-25 08:34:00,49.0,47.0,-100.00,WSW,254,0.0,5.0,92,0.00,,,-99.99,89.000000,,2013-06-25 14:34:00,
2013-06-25 08:42:00,49.0,47.0,-100.00,WSW,254,0.0,5.0,92,0.00,,,-99.99,89.000000,,2013-06-25 14:42:00,
2013-06-25 08:52:00,51.0,40.0,-100.00,WSW,249,8.0,17.0,67,0.00,,,-99.99,231.000000,,2013-06-25 14:52:00,
2013-06-25 09:22:00,51.0,40.0,-100.00,WSW,249,8.0,17.0,67,0.00,,,-99.99,231.000000,,2013-06-25 15:22:00,
2013-06-25 09:32:00,51.0,40.0,-100.00,WSW,249,8.0,17.0,67,0.00,,,-99.99,231.000000,,2013-06-25 15:32:00,
2013-06-25 09:44:00,51.0,40.0,-100.00,WSW,249,8.0,17.0,67,0.00,,,-99.99,231.000000,,2013-06-25 15:44:00,
2013-06-25 09:52:00,55.0,39.0,-100.00,WSW,242,9.0,20.0,55,0.00,,,-99.99,514.000000,,2013-06-25 15:52:00,
2013-06-25 10:23:00,55.0,39.0,-100.00,WSW,242,9.0,20.0,55,0.00,,,-99.99,514.000000,,2013-06-25 16:23:00,
2013-06-25 10:34:00,55.0,39.0,-100.00,WSW,242,9.0,20.0,55,0.00,,,-99.99,514.000000,,2013-06-25 16:34:00,
2013-06-25 10:44:00,55.0,39.0,-100.00,WSW,242,9.0,20.0,55,0.00,,,-99.99,514.000000,,2013-06-25 16:44:00,
2013-06-25 10:52:00,58.0,39.0,-100.00,West,264,6.0,21.0,49,0.00,,,-99.99,652.000000,,2013-06-25 16:52:00,
2013-06-25 11:22:00,58.0,39.0,-100.00,West,264,6.0,21.0,49,0.00,,,-99.99,652.000000,,2013-06-25 17:22:00,
2013-06-25 11:33:00,58.0,39.0,-100.00,West,264,6.0,21.0,49,0.00,,,-99.99,652.000000,,2013-06-25 17:33:00,
2013-06-25 11:44:00,58.0,39.0,-100.00,West,264,6.0,21.0,49,0.00,,,-99.99,652.000000,,2013-06-25 17:44:00,
2013-06-25 11:52:00,60.0,38.0,-100.00,WSW,256,9.0,21.0,44,0.00,,,-99.99,859.000000,,2013-06-25 17:52:00,
2013-06-25 12:22:00,60.0,38.0,-100.00,WSW,256,9.0,21.0,44,0.00,,,-99.99,859.000000,,2013-06-25 18:22:00,
2013-06-25 12:34:00,60.0,38.0,-100.00,WSW,256,9.0,21.0,44,0.00,,,-99.99,859.000000,,2013-06-25 18:34:00,
2013-06-25 12:44:00,60.0,38.0,-100.00,WSW,256,9.0,21.0,44,0.00,,,-99.99,859.000000,,2013-06-25 18:44:00,
2013-06-25 12:52:00,62.0,39.0,-100.00,West,269,7.0,18.0,43,0.00,,,-99.99,928.000000,,2013-06-25 18:52:00,
2013-06-25 13:22:00,62.0,39.0,-100.00,West,269,7.0,18.0,43,0.00,,,-99.99,928.000000,,2013-06-25 19:22:00,
2013-06-25 13:33:00,62.0,39.0,-100.00,West,269,7.0,18.0,43,0.00,,,-99.99,928.000000,,2013-06-25 19:33:00,
2013-06-25 13:44:00,62.0,39.0,-100.00,West,269,7.0,18.0,43,0.00,,,-99.99,928.000000,,2013-06-25 19:44:00,
2013-06-25 13:52:00,59.0,38.0,-100.00,NW,317,4.0,21.0,45,0.00,,,-99.99,539.000000,,2013-06-25 19:52:00,
2013-06-25 14:22:00,59.0,38.0,-100.00,NW,317,4.0,21.0,45,0.00,,,-99.99,539.000000,,2013-06-25 20:22:00,
2013-06-25 14:33:00,59.0,38.0,-100.00,NW,317,4.0,21.0,45,0.00,,,-99.99,539.000000,,2013-06-25 20:33:00,
2013-06-25 14:42:00,59.0,38.0,-100.00,NW,317,4.0,21.0,45,0.00,,,-99.99,539.000000,,2013-06-25 20:42:00,
2013-06-25 14:52:00,61.0,40.0,-100.00,SW,230,7.0,19.0,45,0.00,,,-99.99,383.000000,,2013-06-25 20:52:00,
2013-06-25 15:22:00,61.0,40.0,-100.00,SW,230,7.0,19.0,45,0.00,,,-99.99,383.000000,,2013-06-25 21:22:00,
2013-06-25 15:33:00,61.0,40.0,-100.00,SW,230,7.0,19.0,45,0.00,,,-99.99,383.000000,,2013-06-25 21:33:00,
2013-06-25 15:43:00,61.0,40.0,-100.00,SW,230,7.0,19.0,45,0.00,,,-99.99,383.000000,,2013-06-25 21:43:00,
2013-06-25 15:52:00,60.0,39.0,-100.00,WSW,248,8.0,21.0,46,0.00,,,0.04,377.000000,,2013-06-25 21:52:00,
2013-06-25 16:11:00,60.0,39.0,-100.00,WSW,248,8.0,21.0,46,0.00,,,0.04,377.000000,,2013-06-25 22:11:00,
2013-06-25 16:22:00,60.0,39.0,-100.00,WSW,248,8.0,21.0,46,0.00,,,0.04,377.000000,,2013-06-25 22:22:00,
2013-06-25 16:33:00,60.0,39.0,-100.00,WSW,248,8.0,21.0,46,0.00,,,0.04,377.000000,,2013-06-25 22:33:00,
2013-06-25 16:42:00,60.0,39.0,-100.00,WSW,248,8.0,21.0,46,0.00,,,0.04,377.000000,,2013-06-25 22:42:00,
2013-06-25 16:52:00,64.0,40.0,-100.00,West,267,7.0,22.0,42,0.00,,,0.04,420.000000,,2013-06-25 22:52:00,
2013-06-25 17:22:00,64.0,40.0,-100.00,West,267,7.0,22.0,42,0.00,,,0.04,420.000000,,2013-06-25 23:22:00,
2013-06-25 17:34:00,64.0,40.0,-100.00,West,267,7.0,22.0,42,0.00,,,0.04,420.000000,,2013-06-25 23:34:00,
2013-06-25 17:43:00,64.0,40.0,-100.00,West,267,7.0,22.0,42,0.00,,,0.04,420.000000,,2013-06-25 23:43:00,
2013-06-25 18:52:00,61.0,40.0,-100.00,WSW,244,9.0,18.0,45,0.00,,,0.04,184.000000,,2013-06-26 00:52:00,
2013-06-25 19:33:00,61.0,40.0,-100.00,WSW,244,9.0,18.0,45,0.00,,,0.04,184.000000,,2013-06-26 01:33:00,
2013-06-25 19:43:00,61.0,40.0,-100.00,WSW,244,9.0,18.0,45,0.00,,,0.04,184.000000,,2013-06-26 01:43:00,
2013-06-25 19:52:00,59.0,41.0,-100.00,WNW,295,7.0,17.0,52,0.00,,,0.04,49.000000,,2013-06-26 01:52:00,
2013-06-25 20:22:00,59.0,41.0,-100.00,WNW,295,7.0,17.0,52,0.00,,,0.04,49.000000,,2013-06-26 02:22:00,
2013-06-25 20:34:00,59.0,41.0,-100.00,WNW,295,7.0,17.0,52,0.00,,,0.04,49.000000,,2013-06-26 02:34:00,
2013-06-25 20:43:00,59.0,41.0,-100.00,WNW,295,7.0,17.0,52,0.00,,,0.04,49.000000,,2013-06-26 02:43:00,
2013-06-25 20:52:00,50.0,49.0,-100.00,ENE,75,2.0,37.0,96,0.06,,,0.10,20.000000,,2013-06-26 02:52:00,
2013-06-25 21:11:00,50.0,49.0,-100.00,ENE,75,2.0,37.0,96,0.06,,,0.10,20.000000,,2013-06-26 03:11:00,
2013-06-25 21:22:00,50.0,49.0,-100.00,ENE,75,2.0,37.0,96,0.06,,,0.10,20.000000,,2013-06-26 03:22:00,
2013-06-25 21:33:00,50.0,49.0,-100.00,ENE,75,2.0,37.0,96,0.06,,,0.10,20.000000,,2013-06-26 03:33:00,
2013-06-25 21:43:00,50.0,49.0,-100.00,ENE,75,2.0,37.0,96,0.06,,,0.10,20.000000,,2013-06-26 03:43:00,
2013-06-25 21:52:00,49.0,49.0,-100.00,ENE,77,5.0,10.0,100,0.00,,,0.10,1.000000,,2013-06-26 03:52:00,
2013-06-25 22:12:00,49.0,49.0,-100.00,ENE,77,5.0,10.0,100,0.00,,,0.10,1.000000,,2013-06-26 04:12:00,
2013-06-25 22:22:00,49.0,49.0,-100.00,ENE,77,5.0,10.0,100,0.00,,,0.10,1.000000,,2013-06-26 04:22:00,
2013-06-25 22:33:00,49.0,49.0,-100.00,ENE,77,5.0,10.0,100,0.00,,,0.10,1.000000,,2013-06-26 04:33:00,
2013-06-25 22:43:00,49.0,49.0,-100.00,ENE,77,5.0,10.0,100,0.00,,,0.10,1.000000,,2013-06-26 04:43:00,
2013-06-25 22:52:00,48.0,48.0,-100.00,East,84,3.0,10.0,100,0.05,,,0.15,0.000000,,2013-06-26 04:52:00,
2013-06-25 23:11:00,48.0,48.0,-100.00,East,84,3.0,10.0,100,0.05,,,0.15,0.000000,,2013-06-26 05:11:00,
2013-06-25 23:22:00,48.0,48.0,-100.00,East,84,3.0,10.0,100,0.05,,,0.15,0.000000,,2013-06-26 05:22:00,
2013-06-25 23:34:00,48.0,48.0,-100.00,East,84,3.0,10.0,100,0.05,,,0.15,0.000000,,2013-06-26 05:34:00,
2013-06-25 23:43:00,48.0,48.0,-100.00,East,84,3.0,10.0,100,0.05,,,0.15,0.000000,,2013-06-26 05:43:00,
2013-06-25 23:52:00,48.0,48.0,-100.00,ENE,75,5.0,9.0,100,0.00,,,0.14,0.000000,,2013-06-26 05:52:00,